sensor_id;sensor_type;location;lat;lon;timestamp;P1;durP1;ratioP1;P2;durP2;ratioP2
57297;SDS011;43147;50.972;18.210;2022-09-02T00:00:57;5.80;;;2.70;;
57297;SDS011;43147;50.972;18.210;2022-09-02T00:03:25;2.90;;;1.70;;
57297;SDS011;43147;50.972;18.210;2022-09-02T00:05:52;4.20;;;1.80;;
57297;SDS011;43147;50.972;18.210;2022-09-02T00:08:18;2.90;;;1.90;;
57297;SDS011;43147;50.972;18.210;2022-09-02T00:10:46;8.30;;;2.40;;
57297;SDS011;43147;50.972;18.210;2022-09-02T00:13:12;6.10;;;2.20;;
57297;SDS011;43147;50.972;18.210;2022-09-02T00:15:40;4.30;;;2.50;;
57297;SDS011;43147;50.972;18.210;2022-09-02T00:18:06;4.50;;;2.20;;
57297;SDS011;43147;50.972;18.210;2022-09-02T00:20:41;3.70;;;2.10;;
57297;SDS011;43147;50.972;18.210;2022-09-02T00:23:09;4.50;;;2.00;;
57297;SDS011;43147;50.972;18.210;2022-09-02T00:25:36;6.20;;;3.00;;
57297;SDS011;43147;50.972;18.210;2022-09-02T00:28:03;13.90;;;3.70;;
57297;SDS011;43147;50.972;18.210;2022-09-02T00:30:29;6.20;;;3.20;;
57297;SDS011;43147;50.972;18.210;2022-09-02T00:32:56;4.70;;;2.40;;
57297;SDS011;43147;50.972;18.210;2022-09-02T00:35:21;7.20;;;2.80;;
57297;SDS011;43147;50.972;18.210;2022-09-02T00:37:47;5.20;;;2.70;;
57297;SDS011;43147;50.972;18.210;2022-09-02T00:40:13;7.60;;;4.00;;
57297;SDS011;43147;50.972;18.210;2022-09-02T00:42:39;6.10;;;3.00;;
57297;SDS011;43147;50.972;18.210;2022-09-02T00:45:06;5.00;;;3.00;;
57297;SDS011;43147;50.972;18.210;2022-09-02T00:47:33;2.60;;;1.90;;
57297;SDS011;43147;50.972;18.210;2022-09-02T00:49:58;7.00;;;2.40;;
57297;SDS011;43147;50.972;18.210;2022-09-02T00:52:33;2.70;;;2.00;;
57297;SDS011;43147;50.972;18.210;2022-09-02T00:55:09;6.50;;;2.20;;
57297;SDS011;43147;50.972;18.210;2022-09-02T00:57:40;4.40;;;2.60;;
57297;SDS011;43147;50.972;18.210;2022-09-02T01:00:13;2.50;;;1.90;;
57297;SDS011;43147;50.972;18.210;2022-09-02T01:02:48;4.10;;;2.20;;
57297;SDS011;43147;50.972;18.210;2022-09-02T01:05:16;6.10;;;2.00;;
57297;SDS011;43147;50.972;18.210;2022-09-02T01:07:44;3.60;;;1.60;;
57297;SDS011;43147;50.972;18.210;2022-09-02T01:10:13;4.00;;;2.00;;
57297;SDS011;43147;50.972;18.210;2022-09-02T01:12:48;5.00;;;2.70;;
57297;SDS011;43147;50.972;18.210;2022-09-02T01:15:14;6.00;;;2.60;;
57297;SDS011;43147;50.972;18.210;2022-09-02T01:17:45;4.80;;;2.70;;
57297;SDS011;43147;50.972;18.210;2022-09-02T01:20:13;5.90;;;2.90;;
57297;SDS011;43147;50.972;18.210;2022-09-02T01:22:41;6.40;;;2.60;;
57297;SDS011;43147;50.972;18.210;2022-09-02T01:25:08;5.30;;;2.30;;
57297;SDS011;43147;50.972;18.210;2022-09-02T01:27:39;5.10;;;2.20;;
57297;SDS011;43147;50.972;18.210;2022-09-02T01:30:06;7.40;;;2.70;;
57297;SDS011;43147;50.972;18.210;2022-09-02T01:32:33;8.40;;;2.30;;
57297;SDS011;43147;50.972;18.210;2022-09-02T01:34:59;5.80;;;2.20;;
57297;SDS011;43147;50.972;18.210;2022-09-02T01:37:24;4.00;;;2.20;;
57297;SDS011;43147;50.972;18.210;2022-09-02T01:39:50;3.10;;;2.10;;
57297;SDS011;43147;50.972;18.210;2022-09-02T01:42:16;7.50;;;3.30;;
57297;SDS011;43147;50.972;18.210;2022-09-02T01:44:43;5.10;;;2.70;;
57297;SDS011;43147;50.972;18.210;2022-09-02T01:47:10;3.50;;;2.30;;
57297;SDS011;43147;50.972;18.210;2022-09-02T01:49:36;5.80;;;2.40;;
57297;SDS011;43147;50.972;18.210;2022-09-02T01:52:02;3.30;;;2.50;;
57297;SDS011;43147;50.972;18.210;2022-09-02T01:54:28;4.10;;;2.40;;
57297;SDS011;43147;50.972;18.210;2022-09-02T01:56:54;5.90;;;2.70;;
57297;SDS011;43147;50.972;18.210;2022-09-02T01:59:22;5.30;;;2.90;;
57297;SDS011;43147;50.972;18.210;2022-09-02T02:01:48;8.00;;;3.30;;
57297;SDS011;43147;50.972;18.210;2022-09-02T02:04:13;4.10;;;2.50;;
57297;SDS011;43147;50.972;18.210;2022-09-02T02:06:40;5.30;;;2.60;;
57297;SDS011;43147;50.972;18.210;2022-09-02T02:09:07;6.10;;;3.70;;
57297;SDS011;43147;50.972;18.210;2022-09-02T02:11:34;6.70;;;2.60;;
57297;SDS011;43147;50.972;18.210;2022-09-02T02:14:00;4.20;;;2.30;;
57297;SDS011;43147;50.972;18.210;2022-09-02T02:16:25;5.90;;;2.20;;
57297;SDS011;43147;50.972;18.210;2022-09-02T02:18:51;5.20;;;2.50;;
57297;SDS011;43147;50.972;18.210;2022-09-02T02:21:16;5.20;;;2.30;;
57297;SDS011;43147;50.972;18.210;2022-09-02T02:23:42;5.50;;;2.50;;
57297;SDS011;43147;50.972;18.210;2022-09-02T02:26:07;5.50;;;2.00;;
57297;SDS011;43147;50.972;18.210;2022-09-02T02:28:33;6.70;;;2.40;;
57297;SDS011;43147;50.972;18.210;2022-09-02T02:31:00;5.30;;;2.30;;
57297;SDS011;43147;50.972;18.210;2022-09-02T02:33:25;5.30;;;2.40;;
57297;SDS011;43147;50.972;18.210;2022-09-02T02:35:53;3.50;;;2.50;;
57297;SDS011;43147;50.972;18.210;2022-09-02T02:38:20;5.00;;;2.40;;
57297;SDS011;43147;50.972;18.210;2022-09-02T02:40:46;5.10;;;2.70;;
57297;SDS011;43147;50.972;18.210;2022-09-02T02:43:11;5.00;;;2.80;;
57297;SDS011;43147;50.972;18.210;2022-09-02T02:45:37;4.70;;;2.90;;
57297;SDS011;43147;50.972;18.210;2022-09-02T02:48:03;5.10;;;3.00;;
57297;SDS011;43147;50.972;18.210;2022-09-02T02:50:29;6.20;;;3.20;;
57297;SDS011;43147;50.972;18.210;2022-09-02T02:52:55;10.50;;;3.40;;
57297;SDS011;43147;50.972;18.210;2022-09-02T02:55:21;10.20;;;3.60;;
57297;SDS011;43147;50.972;18.210;2022-09-02T02:57:48;14.40;;;3.30;;
57297;SDS011;43147;50.972;18.210;2022-09-02T03:00:16;4.40;;;3.00;;
57297;SDS011;43147;50.972;18.210;2022-09-02T03:02:45;4.30;;;3.50;;
57297;SDS011;43147;50.972;18.210;2022-09-02T03:05:11;3.30;;;2.90;;
57297;SDS011;43147;50.972;18.210;2022-09-02T03:07:38;8.10;;;3.60;;
57297;SDS011;43147;50.972;18.210;2022-09-02T03:10:04;7.10;;;4.00;;
57297;SDS011;43147;50.972;18.210;2022-09-02T03:12:32;5.20;;;3.50;;
57297;SDS011;43147;50.972;18.210;2022-09-02T03:14:59;8.80;;;4.80;;
57297;SDS011;43147;50.972;18.210;2022-09-02T03:17:26;4.20;;;3.60;;
57297;SDS011;43147;50.972;18.210;2022-09-02T03:19:52;4.90;;;3.50;;
57297;SDS011;43147;50.972;18.210;2022-09-02T03:22:19;4.40;;;3.20;;
57297;SDS011;43147;50.972;18.210;2022-09-02T03:24:44;4.60;;;3.50;;
57297;SDS011;43147;50.972;18.210;2022-09-02T03:27:10;5.70;;;3.60;;
57297;SDS011;43147;50.972;18.210;2022-09-02T03:29:36;9.50;;;4.80;;
57297;SDS011;43147;50.972;18.210;2022-09-02T03:32:02;8.50;;;4.00;;
57297;SDS011;43147;50.972;18.210;2022-09-02T03:34:28;4.40;;;4.00;;
57297;SDS011;43147;50.972;18.210;2022-09-02T03:36:56;11.50;;;4.80;;
57297;SDS011;43147;50.972;18.210;2022-09-02T03:39:22;7.30;;;4.70;;
57297;SDS011;43147;50.972;18.210;2022-09-02T03:41:50;7.30;;;4.30;;
57297;SDS011;43147;50.972;18.210;2022-09-02T03:44:16;7.20;;;4.00;;
57297;SDS011;43147;50.972;18.210;2022-09-02T03:46:41;5.60;;;4.00;;
57297;SDS011;43147;50.972;18.210;2022-09-02T03:49:07;8.20;;;3.60;;
57297;SDS011;43147;50.972;18.210;2022-09-02T03:51:33;5.00;;;3.40;;
57297;SDS011;43147;50.972;18.210;2022-09-02T03:53:59;8.40;;;4.20;;
57297;SDS011;43147;50.972;18.210;2022-09-02T03:56:28;8.60;;;4.30;;
57297;SDS011;43147;50.972;18.210;2022-09-02T03:58:53;7.60;;;4.50;;
57297;SDS011;43147;50.972;18.210;2022-09-02T04:01:21;9.80;;;4.10;;
57297;SDS011;43147;50.972;18.210;2022-09-02T04:03:48;6.10;;;4.70;;
57297;SDS011;43147;50.972;18.210;2022-09-02T04:06:15;10.60;;;4.60;;
57297;SDS011;43147;50.972;18.210;2022-09-02T04:08:42;7.00;;;4.50;;
57297;SDS011;43147;50.972;18.210;2022-09-02T04:11:10;6.80;;;4.90;;
57297;SDS011;43147;50.972;18.210;2022-09-02T04:13:38;10.30;;;4.50;;
57297;SDS011;43147;50.972;18.210;2022-09-02T04:16:05;6.80;;;4.30;;
57297;SDS011;43147;50.972;18.210;2022-09-02T04:18:32;12.30;;;4.70;;
57297;SDS011;43147;50.972;18.210;2022-09-02T04:20:58;6.70;;;4.30;;
57297;SDS011;43147;50.972;18.210;2022-09-02T04:23:24;6.00;;;4.30;;
57297;SDS011;43147;50.972;18.210;2022-09-02T04:25:50;12.40;;;4.00;;
57297;SDS011;43147;50.972;18.210;2022-09-02T04:28:16;7.30;;;4.30;;
57297;SDS011;43147;50.972;18.210;2022-09-02T04:30:42;7.90;;;4.10;;
57297;SDS011;43147;50.972;18.210;2022-09-02T04:33:08;6.40;;;3.90;;
57297;SDS011;43147;50.972;18.210;2022-09-02T04:35:34;9.70;;;4.90;;
57297;SDS011;43147;50.972;18.210;2022-09-02T04:38:00;6.80;;;4.40;;
57297;SDS011;43147;50.972;18.210;2022-09-02T04:40:27;9.60;;;4.70;;
57297;SDS011;43147;50.972;18.210;2022-09-02T04:42:52;6.40;;;4.90;;
57297;SDS011;43147;50.972;18.210;2022-09-02T04:45:18;8.00;;;5.40;;
57297;SDS011;43147;50.972;18.210;2022-09-02T04:47:44;6.80;;;4.80;;
57297;SDS011;43147;50.972;18.210;2022-09-02T04:50:09;8.30;;;4.90;;
57297;SDS011;43147;50.972;18.210;2022-09-02T04:52:35;5.50;;;4.30;;
57297;SDS011;43147;50.972;18.210;2022-09-02T04:55:01;5.20;;;4.70;;
57297;SDS011;43147;50.972;18.210;2022-09-02T04:57:26;9.80;;;4.10;;
57297;SDS011;43147;50.972;18.210;2022-09-02T04:59:52;5.70;;;4.20;;
57297;SDS011;43147;50.972;18.210;2022-09-02T05:02:18;8.10;;;4.20;;
57297;SDS011;43147;50.972;18.210;2022-09-02T05:04:47;8.60;;;5.50;;
57297;SDS011;43147;50.972;18.210;2022-09-02T05:07:13;4.80;;;4.20;;
57297;SDS011;43147;50.972;18.210;2022-09-02T05:09:40;5.50;;;3.70;;
57297;SDS011;43147;50.972;18.210;2022-09-02T05:12:06;13.40;;;4.00;;
57297;SDS011;43147;50.972;18.210;2022-09-02T05:14:32;7.10;;;3.60;;
57297;SDS011;43147;50.972;18.210;2022-09-02T05:16:57;8.40;;;4.50;;
57297;SDS011;43147;50.972;18.210;2022-09-02T05:19:24;7.80;;;4.60;;
57297;SDS011;43147;50.972;18.210;2022-09-02T05:21:51;9.30;;;4.20;;
57297;SDS011;43147;50.972;18.210;2022-09-02T05:24:20;6.60;;;4.00;;
57297;SDS011;43147;50.972;18.210;2022-09-02T05:26:46;5.40;;;4.60;;
57297;SDS011;43147;50.972;18.210;2022-09-02T05:29:12;6.30;;;4.40;;
57297;SDS011;43147;50.972;18.210;2022-09-02T05:31:38;5.70;;;4.70;;
57297;SDS011;43147;50.972;18.210;2022-09-02T05:34:06;7.10;;;4.20;;
57297;SDS011;43147;50.972;18.210;2022-09-02T05:36:32;7.00;;;4.90;;
57297;SDS011;43147;50.972;18.210;2022-09-02T05:39:01;6.80;;;4.70;;
57297;SDS011;43147;50.972;18.210;2022-09-02T05:41:28;6.50;;;4.70;;
57297;SDS011;43147;50.972;18.210;2022-09-02T05:43:55;8.30;;;4.90;;
57297;SDS011;43147;50.972;18.210;2022-09-02T05:46:22;7.80;;;5.00;;
57297;SDS011;43147;50.972;18.210;2022-09-02T05:48:49;4.60;;;4.10;;
57297;SDS011;43147;50.972;18.210;2022-09-02T05:51:47;6.10;;;3.60;;
57297;SDS011;43147;50.972;18.210;2022-09-02T05:54:21;4.40;;;3.40;;
57297;SDS011;43147;50.972;18.210;2022-09-02T05:56:50;5.00;;;2.60;;
57297;SDS011;43147;50.972;18.210;2022-09-02T05:59:18;6.80;;;2.50;;
57297;SDS011;43147;50.972;18.210;2022-09-02T06:01:45;5.00;;;2.50;;
57297;SDS011;43147;50.972;18.210;2022-09-02T06:04:12;5.50;;;2.50;;
57297;SDS011;43147;50.972;18.210;2022-09-02T06:06:39;3.30;;;1.80;;
57297;SDS011;43147;50.972;18.210;2022-09-02T06:09:05;7.60;;;2.00;;
57297;SDS011;43147;50.972;18.210;2022-09-02T06:11:33;5.50;;;2.10;;
57297;SDS011;43147;50.972;18.210;2022-09-02T06:14:04;4.70;;;1.80;;
57297;SDS011;43147;50.972;18.210;2022-09-02T06:16:32;5.40;;;1.80;;
57297;SDS011;43147;50.972;18.210;2022-09-02T06:18:58;5.10;;;2.00;;
57297;SDS011;43147;50.972;18.210;2022-09-02T06:21:24;2.60;;;1.80;;
57297;SDS011;43147;50.972;18.210;2022-09-02T06:23:52;4.00;;;1.70;;
57297;SDS011;43147;50.972;18.210;2022-09-02T06:26:17;2.10;;;1.10;;
57297;SDS011;43147;50.972;18.210;2022-09-02T06:28:43;7.80;;;2.20;;
57297;SDS011;43147;50.972;18.210;2022-09-02T06:31:10;3.10;;;1.30;;
57297;SDS011;43147;50.972;18.210;2022-09-02T06:33:39;3.60;;;1.50;;
57297;SDS011;43147;50.972;18.210;2022-09-02T06:36:07;2.80;;;1.30;;
57297;SDS011;43147;50.972;18.210;2022-09-02T06:38:40;2.90;;;1.40;;
57297;SDS011;43147;50.972;18.210;2022-09-02T06:41:09;3.40;;;1.30;;
57297;SDS011;43147;50.972;18.210;2022-09-02T06:43:36;4.10;;;1.70;;
57297;SDS011;43147;50.972;18.210;2022-09-02T06:46:02;3.90;;;1.40;;
57297;SDS011;43147;50.972;18.210;2022-09-02T06:48:28;3.00;;;1.70;;
57297;SDS011;43147;50.972;18.210;2022-09-02T06:50:54;3.10;;;1.50;;
57297;SDS011;43147;50.972;18.210;2022-09-02T06:53:19;3.10;;;1.50;;
57297;SDS011;43147;50.972;18.210;2022-09-02T06:55:45;5.50;;;1.50;;
57297;SDS011;43147;50.972;18.210;2022-09-02T06:58:11;2.00;;;1.10;;
57297;SDS011;43147;50.972;18.210;2022-09-02T07:00:38;2.80;;;1.30;;
57297;SDS011;43147;50.972;18.210;2022-09-02T07:03:05;5.20;;;1.90;;
57297;SDS011;43147;50.972;18.210;2022-09-02T07:05:59;5.70;;;1.90;;
57297;SDS011;43147;50.972;18.210;2022-09-02T07:08:26;6.20;;;2.20;;
57297;SDS011;43147;50.972;18.210;2022-09-02T07:10:53;3.90;;;1.70;;
57297;SDS011;43147;50.972;18.210;2022-09-02T07:13:19;4.30;;;2.10;;
57297;SDS011;43147;50.972;18.210;2022-09-02T07:15:44;5.70;;;1.90;;
57297;SDS011;43147;50.972;18.210;2022-09-02T07:18:10;4.20;;;2.20;;
57297;SDS011;43147;50.972;18.210;2022-09-02T07:20:36;4.50;;;2.00;;
57297;SDS011;43147;50.972;18.210;2022-09-02T07:23:02;5.40;;;2.10;;
57297;SDS011;43147;50.972;18.210;2022-09-02T07:25:29;5.30;;;2.50;;
57297;SDS011;43147;50.972;18.210;2022-09-02T07:27:55;5.90;;;2.10;;
57297;SDS011;43147;50.972;18.210;2022-09-02T07:30:21;3.60;;;2.20;;
57297;SDS011;43147;50.972;18.210;2022-09-02T07:32:47;6.70;;;2.50;;
57297;SDS011;43147;50.972;18.210;2022-09-02T07:35:13;5.70;;;2.30;;
57297;SDS011;43147;50.972;18.210;2022-09-02T07:37:39;4.30;;;2.20;;
57297;SDS011;43147;50.972;18.210;2022-09-02T07:40:06;8.00;;;2.10;;
57297;SDS011;43147;50.972;18.210;2022-09-02T07:42:32;3.60;;;1.60;;
57297;SDS011;43147;50.972;18.210;2022-09-02T07:44:58;3.10;;;1.50;;
57297;SDS011;43147;50.972;18.210;2022-09-02T07:47:23;2.80;;;1.70;;
57297;SDS011;43147;50.972;18.210;2022-09-02T07:49:49;5.20;;;2.00;;
57297;SDS011;43147;50.972;18.210;2022-09-02T07:52:14;5.70;;;2.10;;
57297;SDS011;43147;50.972;18.210;2022-09-02T07:54:41;4.00;;;1.60;;
57297;SDS011;43147;50.972;18.210;2022-09-02T07:57:06;3.70;;;1.90;;
57297;SDS011;43147;50.972;18.210;2022-09-02T07:59:32;3.70;;;1.50;;
57297;SDS011;43147;50.972;18.210;2022-09-02T08:01:58;6.00;;;2.20;;
57297;SDS011;43147;50.972;18.210;2022-09-02T08:04:24;4.50;;;1.90;;
57297;SDS011;43147;50.972;18.210;2022-09-02T08:06:51;6.50;;;1.60;;
57297;SDS011;43147;50.972;18.210;2022-09-02T08:09:17;3.40;;;1.60;;
57297;SDS011;43147;50.972;18.210;2022-09-02T08:11:52;6.10;;;2.00;;
57297;SDS011;43147;50.972;18.210;2022-09-02T08:14:20;2.50;;;1.90;;
57297;SDS011;43147;50.972;18.210;2022-09-02T08:16:50;3.70;;;2.00;;
57297;SDS011;43147;50.972;18.210;2022-09-02T08:19:16;4.80;;;1.80;;
57297;SDS011;43147;50.972;18.210;2022-09-02T08:21:42;5.10;;;1.30;;
57297;SDS011;43147;50.972;18.210;2022-09-02T08:24:09;4.30;;;1.60;;
57297;SDS011;43147;50.972;18.210;2022-09-02T08:26:34;2.40;;;1.20;;
57297;SDS011;43147;50.972;18.210;2022-09-02T08:29:04;4.50;;;1.40;;
57297;SDS011;43147;50.972;18.210;2022-09-02T08:31:31;2.40;;;1.40;;
57297;SDS011;43147;50.972;18.210;2022-09-02T08:33:57;2.60;;;1.20;;
57297;SDS011;43147;50.972;18.210;2022-09-02T08:36:23;2.40;;;1.50;;
57297;SDS011;43147;50.972;18.210;2022-09-02T08:38:49;5.40;;;1.50;;
57297;SDS011;43147;50.972;18.210;2022-09-02T08:41:28;1.90;;;1.10;;
57297;SDS011;43147;50.972;18.210;2022-09-02T08:43:59;4.50;;;1.30;;
57297;SDS011;43147;50.972;18.210;2022-09-02T08:46:26;1.60;;;0.90;;
57297;SDS011;43147;50.972;18.210;2022-09-02T08:51:55;3.70;;;1.30;;
57297;SDS011;43147;50.972;18.210;2022-09-02T08:57:06;1.30;;;0.70;;
57297;SDS011;43147;50.972;18.210;2022-09-02T08:59:34;2.00;;;0.90;;
57297;SDS011;43147;50.972;18.210;2022-09-02T09:18:16;4.80;;;0.70;;
57297;SDS011;43147;50.972;18.210;2022-09-02T09:20:44;2.00;;;0.60;;
57297;SDS011;43147;50.972;18.210;2022-09-02T09:23:30;3.20;;;1.00;;
57297;SDS011;43147;50.972;18.210;2022-09-02T09:26:11;3.80;;;0.70;;
57297;SDS011;43147;50.972;18.210;2022-09-02T09:28:42;1.40;;;0.70;;
57297;SDS011;43147;50.972;18.210;2022-09-02T09:31:30;3.50;;;0.80;;
57297;SDS011;43147;50.972;18.210;2022-09-02T09:36:41;2.60;;;0.60;;
57297;SDS011;43147;50.972;18.210;2022-09-02T09:42:00;2.40;;;0.70;;
57297;SDS011;43147;50.972;18.210;2022-09-02T09:44:34;3.30;;;0.90;;
57297;SDS011;43147;50.972;18.210;2022-09-02T09:47:06;1.70;;;0.80;;
57297;SDS011;43147;50.972;18.210;2022-09-02T09:49:33;1.80;;;0.50;;
57297;SDS011;43147;50.972;18.210;2022-09-02T09:52:00;8.10;;;0.80;;
57297;SDS011;43147;50.972;18.210;2022-09-02T09:54:26;3.60;;;1.00;;
57297;SDS011;43147;50.972;18.210;2022-09-02T09:56:52;2.40;;;0.80;;
57297;SDS011;43147;50.972;18.210;2022-09-02T10:02:09;2.20;;;0.60;;
57297;SDS011;43147;50.972;18.210;2022-09-02T10:04:51;1.40;;;0.60;;
57297;SDS011;43147;50.972;18.210;2022-09-02T10:07:33;1.20;;;0.50;;
57297;SDS011;43147;50.972;18.210;2022-09-02T10:10:19;2.40;;;1.20;;
57297;SDS011;43147;50.972;18.210;2022-09-02T10:13:18;1.70;;;0.90;;
57297;SDS011;43147;50.972;18.210;2022-09-02T10:18:43;5.10;;;1.20;;
57297;SDS011;43147;50.972;18.210;2022-09-02T10:26:37;4.50;;;0.70;;
57297;SDS011;43147;50.972;18.210;2022-09-02T10:32:03;3.60;;;1.00;;
57297;SDS011;43147;50.972;18.210;2022-09-02T10:37:42;5.30;;;1.50;;
57297;SDS011;43147;50.972;18.210;2022-09-02T10:45:30;4.30;;;0.70;;
57297;SDS011;43147;50.972;18.210;2022-09-02T10:56:20;1.10;;;0.50;;
57297;SDS011;43147;50.972;18.210;2022-09-02T10:59:08;2.60;;;0.60;;
57297;SDS011;43147;50.972;18.210;2022-09-02T11:01:40;1.00;;;0.40;;
57297;SDS011;43147;50.972;18.210;2022-09-02T11:06:53;3.70;;;1.20;;
57297;SDS011;43147;50.972;18.210;2022-09-02T11:14:47;2.80;;;0.60;;
57297;SDS011;43147;50.972;18.210;2022-09-02T11:20:27;3.10;;;0.60;;
57297;SDS011;43147;50.972;18.210;2022-09-02T11:23:05;4.10;;;0.80;;
57297;SDS011;43147;50.972;18.210;2022-09-02T11:25:41;1.60;;;0.60;;
57297;SDS011;43147;50.972;18.210;2022-09-02T11:31:34;3.20;;;0.50;;
57297;SDS011;43147;50.972;18.210;2022-09-02T11:37:01;1.00;;;0.60;;
57297;SDS011;43147;50.972;18.210;2022-09-02T11:39:31;3.60;;;1.40;;
57297;SDS011;43147;50.972;18.210;2022-09-02T11:48:07;2.30;;;1.10;;
57297;SDS011;43147;50.972;18.210;2022-09-02T11:56:00;1.40;;;0.50;;
57297;SDS011;43147;50.972;18.210;2022-09-02T12:01:03;2.60;;;0.50;;
57297;SDS011;43147;50.972;18.210;2022-09-02T12:03:29;2.60;;;0.50;;
57297;SDS011;43147;50.972;18.210;2022-09-02T12:06:07;4.20;;;0.90;;
57297;SDS011;43147;50.972;18.210;2022-09-02T12:11:01;3.40;;;0.80;;
57297;SDS011;43147;50.972;18.210;2022-09-02T12:13:37;2.40;;;0.70;;
57297;SDS011;43147;50.972;18.210;2022-09-02T12:18:37;2.60;;;0.90;;
57297;SDS011;43147;50.972;18.210;2022-09-02T12:21:08;1.50;;;0.80;;
57297;SDS011;43147;50.972;18.210;2022-09-02T12:26:27;4.60;;;1.00;;
57297;SDS011;43147;50.972;18.210;2022-09-02T12:29:09;1.50;;;0.60;;
57297;SDS011;43147;50.972;18.210;2022-09-02T12:31:49;3.10;;;0.90;;
57297;SDS011;43147;50.972;18.210;2022-09-02T12:36:49;2.40;;;0.60;;
57297;SDS011;43147;50.972;18.210;2022-09-02T12:47:39;1.20;;;0.50;;
57297;SDS011;43147;50.972;18.210;2022-09-02T12:50:25;0.90;;;0.50;;
57297;SDS011;43147;50.972;18.210;2022-09-02T12:52:51;2.50;;;0.50;;
57297;SDS011;43147;50.972;18.210;2022-09-02T12:55:38;1.50;;;0.60;;
57297;SDS011;43147;50.972;18.210;2022-09-02T12:58:12;1.30;;;0.90;;
57297;SDS011;43147;50.972;18.210;2022-09-02T13:33:19;3.20;;;0.60;;
57297;SDS011;43147;50.972;18.210;2022-09-02T13:35:45;1.50;;;0.70;;
57297;SDS011;43147;50.972;18.210;2022-09-02T13:38:21;1.90;;;0.80;;
57297;SDS011;43147;50.972;18.210;2022-09-02T13:40:49;4.20;;;0.60;;
57297;SDS011;43147;50.972;18.210;2022-09-02T13:43:16;1.80;;;0.60;;
57297;SDS011;43147;50.972;18.210;2022-09-02T13:45:44;1.10;;;0.70;;
57297;SDS011;43147;50.972;18.210;2022-09-02T13:48:14;1.50;;;0.50;;
57297;SDS011;43147;50.972;18.210;2022-09-02T13:50:46;2.70;;;0.50;;
57297;SDS011;43147;50.972;18.210;2022-09-02T13:56:00;2.40;;;0.50;;
57297;SDS011;43147;50.972;18.210;2022-09-02T14:00:53;2.80;;;0.80;;
57297;SDS011;43147;50.972;18.210;2022-09-02T14:03:21;1.40;;;0.70;;
57297;SDS011;43147;50.972;18.210;2022-09-02T14:05:48;5.00;;;1.20;;
57297;SDS011;43147;50.972;18.210;2022-09-02T14:08:20;1.40;;;0.50;;
57297;SDS011;43147;50.972;18.210;2022-09-02T14:10:47;4.30;;;0.70;;
57297;SDS011;43147;50.972;18.210;2022-09-02T14:13:15;3.30;;;0.60;;
57297;SDS011;43147;50.972;18.210;2022-09-02T14:15:41;1.70;;;0.50;;
57297;SDS011;43147;50.972;18.210;2022-09-02T14:23:25;2.90;;;1.00;;
57297;SDS011;43147;50.972;18.210;2022-09-02T14:25:53;5.80;;;1.10;;
57297;SDS011;43147;50.972;18.210;2022-09-02T14:28:22;5.70;;;1.10;;
57297;SDS011;43147;50.972;18.210;2022-09-02T14:30:53;2.30;;;0.90;;
57297;SDS011;43147;50.972;18.210;2022-09-02T14:38:27;2.70;;;0.90;;
57297;SDS011;43147;50.972;18.210;2022-09-02T14:40:58;1.70;;;0.70;;
57297;SDS011;43147;50.972;18.210;2022-09-02T14:43:29;5.20;;;0.90;;
57297;SDS011;43147;50.972;18.210;2022-09-02T14:46:03;5.40;;;1.40;;
57297;SDS011;43147;50.972;18.210;2022-09-02T14:48:36;3.50;;;0.90;;
57297;SDS011;43147;50.972;18.210;2022-09-02T14:51:04;4.30;;;0.70;;
57297;SDS011;43147;50.972;18.210;2022-09-02T14:53:33;6.40;;;1.00;;
57297;SDS011;43147;50.972;18.210;2022-09-02T14:56:02;1.80;;;0.90;;
57297;SDS011;43147;50.972;18.210;2022-09-02T14:58:29;1.20;;;0.90;;
57297;SDS011;43147;50.972;18.210;2022-09-02T15:00:55;1.50;;;0.70;;
57297;SDS011;43147;50.972;18.210;2022-09-02T15:03:23;1.60;;;0.60;;
57297;SDS011;43147;50.972;18.210;2022-09-02T15:05:49;1.80;;;0.70;;
57297;SDS011;43147;50.972;18.210;2022-09-02T15:08:15;2.50;;;0.60;;
57297;SDS011;43147;50.972;18.210;2022-09-02T15:10:41;4.00;;;1.00;;
57297;SDS011;43147;50.972;18.210;2022-09-02T15:13:17;3.00;;;0.60;;
57297;SDS011;43147;50.972;18.210;2022-09-02T15:15:50;1.90;;;0.80;;
57297;SDS011;43147;50.972;18.210;2022-09-02T15:18:16;2.20;;;0.80;;
57297;SDS011;43147;50.972;18.210;2022-09-02T15:20:41;1.50;;;0.70;;
57297;SDS011;43147;50.972;18.210;2022-09-02T15:23:07;4.60;;;0.80;;
57297;SDS011;43147;50.972;18.210;2022-09-02T15:25:32;2.90;;;0.80;;
57297;SDS011;43147;50.972;18.210;2022-09-02T15:27:59;2.30;;;0.80;;
57297;SDS011;43147;50.972;18.210;2022-09-02T15:30:28;1.00;;;0.70;;
57297;SDS011;43147;50.972;18.210;2022-09-02T15:32:55;1.60;;;0.90;;
57297;SDS011;43147;50.972;18.210;2022-09-02T15:35:20;5.40;;;1.80;;
57297;SDS011;43147;50.972;18.210;2022-09-02T15:37:50;2.60;;;0.80;;
57297;SDS011;43147;50.972;18.210;2022-09-02T15:40:16;4.20;;;1.00;;
57297;SDS011;43147;50.972;18.210;2022-09-02T15:42:41;2.50;;;0.70;;
57297;SDS011;43147;50.972;18.210;2022-09-02T15:45:09;2.10;;;0.90;;
57297;SDS011;43147;50.972;18.210;2022-09-02T15:47:35;2.70;;;0.80;;
57297;SDS011;43147;50.972;18.210;2022-09-02T15:50:01;1.00;;;0.70;;
57297;SDS011;43147;50.972;18.210;2022-09-02T15:52:27;6.90;;;0.60;;
57297;SDS011;43147;50.972;18.210;2022-09-02T15:54:53;2.10;;;1.00;;
57297;SDS011;43147;50.972;18.210;2022-09-02T15:57:19;2.70;;;1.10;;
57297;SDS011;43147;50.972;18.210;2022-09-02T15:59:46;5.10;;;1.40;;
57297;SDS011;43147;50.972;18.210;2022-09-02T16:02:12;3.30;;;1.10;;
57297;SDS011;43147;50.972;18.210;2022-09-02T16:04:38;2.00;;;0.90;;
57297;SDS011;43147;50.972;18.210;2022-09-02T16:07:04;2.50;;;0.90;;
57297;SDS011;43147;50.972;18.210;2022-09-02T16:09:29;2.20;;;1.20;;
57297;SDS011;43147;50.972;18.210;2022-09-02T16:11:55;4.30;;;1.20;;
57297;SDS011;43147;50.972;18.210;2022-09-02T16:14:20;2.90;;;1.30;;
57297;SDS011;43147;50.972;18.210;2022-09-02T16:16:51;4.50;;;1.20;;
57297;SDS011;43147;50.972;18.210;2022-09-02T16:19:22;8.40;;;1.30;;
57297;SDS011;43147;50.972;18.210;2022-09-02T16:21:48;3.40;;;1.30;;
57297;SDS011;43147;50.972;18.210;2022-09-02T16:24:15;2.60;;;1.00;;
57297;SDS011;43147;50.972;18.210;2022-09-02T16:26:42;6.50;;;1.40;;
57297;SDS011;43147;50.972;18.210;2022-09-02T16:29:09;3.60;;;1.30;;
57297;SDS011;43147;50.972;18.210;2022-09-02T16:31:38;2.00;;;1.30;;
57297;SDS011;43147;50.972;18.210;2022-09-02T16:36:41;5.80;;;1.30;;
57297;SDS011;43147;50.972;18.210;2022-09-02T16:39:08;4.80;;;1.20;;
57297;SDS011;43147;50.972;18.210;2022-09-02T16:41:44;4.80;;;1.80;;
57297;SDS011;43147;50.972;18.210;2022-09-02T16:44:15;5.90;;;1.30;;
57297;SDS011;43147;50.972;18.210;2022-09-02T16:46:42;3.90;;;1.50;;
57297;SDS011;43147;50.972;18.210;2022-09-02T16:49:10;7.50;;;1.30;;
57297;SDS011;43147;50.972;18.210;2022-09-02T16:51:38;4.20;;;1.50;;
57297;SDS011;43147;50.972;18.210;2022-09-02T16:54:05;5.40;;;1.70;;
57297;SDS011;43147;50.972;18.210;2022-09-02T16:56:32;5.80;;;2.10;;
57297;SDS011;43147;50.972;18.210;2022-09-02T16:58:59;3.60;;;1.50;;
57297;SDS011;43147;50.972;18.210;2022-09-02T17:01:26;5.10;;;1.70;;
57297;SDS011;43147;50.972;18.210;2022-09-02T17:03:52;10.10;;;1.80;;
57297;SDS011;43147;50.972;18.210;2022-09-02T17:06:17;2.10;;;1.30;;
57297;SDS011;43147;50.972;18.210;2022-09-02T17:08:43;4.10;;;1.60;;
57297;SDS011;43147;50.972;18.210;2022-09-02T17:13:52;5.20;;;2.10;;
57297;SDS011;43147;50.972;18.210;2022-09-02T17:16:22;5.90;;;2.30;;
57297;SDS011;43147;50.972;18.210;2022-09-02T17:18:49;3.80;;;1.50;;
57297;SDS011;43147;50.972;18.210;2022-09-02T17:21:23;2.60;;;1.90;;